sensor_id;sensor_type;location;lat;lon;timestamp;pressure;altitude;pressure_sealevel;temperature;humidity
21182;BME280;10749;46.296;7.524;2023-11-19T00:02:07;95532.00;;;7.95;63.62
21182;BME280;10749;46.296;7.524;2023-11-19T00:04:33;95535.16;;;7.98;63.62
21182;BME280;10749;46.296;7.524;2023-11-19T00:07:01;95534.34;;;7.98;63.50
21182;BME280;10749;46.296;7.524;2023-11-19T00:09:29;95530.16;;;7.95;63.91
21182;BME280;10749;46.296;7.524;2023-11-19T00:11:54;95535.59;;;7.94;63.96
21182;BME280;10749;46.296;7.524;2023-11-19T00:14:20;95525.91;;;7.94;63.82
21182;BME280;10749;46.296;7.524;2023-11-19T00:16:45;95525.59;;;7.97;63.75
21182;BME280;10749;46.296;7.524;2023-11-19T00:19:11;95527.53;;;7.95;63.88
21182;BME280;10749;46.296;7.524;2023-11-19T00:21:36;95519.47;;;7.97;63.29
21182;BME280;10749;46.296;7.524;2023-11-19T00:24:02;95514.22;;;7.97;62.54
21182;BME280;10749;46.296;7.524;2023-11-19T00:26:28;95506.75;;;7.92;63.11
21182;BME280;10749;46.296;7.524;2023-11-19T00:28:54;95512.03;;;7.92;63.26
21182;BME280;10749;46.296;7.524;2023-11-19T00:31:21;95499.13;;;7.89;63.46
21182;BME280;10749;46.296;7.524;2023-11-19T00:33:46;95493.34;;;7.85;63.71
21182;BME280;10749;46.296;7.524;2023-11-19T00:36:11;95491.25;;;7.89;63.50
21182;BME280;10749;46.296;7.524;2023-11-19T00:38:37;95485.66;;;7.92;63.62
21182;BME280;10749;46.296;7.524;2023-11-19T00:41:02;95487.53;;;7.82;63.97
21182;BME280;10749;46.296;7.524;2023-11-19T00:43:28;95496.56;;;7.79;64.33
21182;BME280;10749;46.296;7.524;2023-11-19T00:45:54;95490.84;;;7.84;63.89
21182;BME280;10749;46.296;7.524;2023-11-19T00:48:19;95486.53;;;7.83;64.10
21182;BME280;10749;46.296;7.524;2023-11-19T00:50:44;95483.78;;;7.84;64.08
21182;BME280;10749;46.296;7.524;2023-11-19T00:53:10;95477.13;;;7.80;64.14
21182;BME280;10749;46.296;7.524;2023-11-19T00:55:36;95468.78;;;7.85;63.87
21182;BME280;10749;46.296;7.524;2023-11-19T00:58:01;95469.75;;;7.84;64.13
21182;BME280;10749;46.296;7.524;2023-11-19T01:00:28;95472.69;;;7.81;64.14
21182;BME280;10749;46.296;7.524;2023-11-19T01:02:53;95467.72;;;7.78;64.18
21182;BME280;10749;46.296;7.524;2023-11-19T01:05:20;95471.34;;;7.77;64.42
21182;BME280;10749;46.296;7.524;2023-11-19T01:07:49;95474.09;;;7.75;64.42
21182;BME280;10749;46.296;7.524;2023-11-19T01:10:14;95475.78;;;7.76;64.35
21182;BME280;10749;46.296;7.524;2023-11-19T01:12:41;95470.72;;;7.83;63.73
21182;BME280;10749;46.296;7.524;2023-11-19T01:15:07;95477.34;;;7.87;63.93
21182;BME280;10749;46.296;7.524;2023-11-19T01:17:33;95471.44;;;7.85;64.00
21182;BME280;10749;46.296;7.524;2023-11-19T01:19:58;95467.81;;;7.86;64.33
21182;BME280;10749;46.296;7.524;2023-11-19T01:22:23;95460.88;;;7.85;64.34
21182;BME280;10749;46.296;7.524;2023-11-19T01:24:48;95458.69;;;7.80;64.41
21182;BME280;10749;46.296;7.524;2023-11-19T01:27:14;95454.69;;;7.76;64.72
21182;BME280;10749;46.296;7.524;2023-11-19T01:29:39;95458.03;;;7.78;64.54
21182;BME280;10749;46.296;7.524;2023-11-19T01:32:05;95457.19;;;7.78;64.41
21182;BME280;10749;46.296;7.524;2023-11-19T01:34:30;95454.16;;;7.73;64.41
21182;BME280;10749;46.296;7.524;2023-11-19T01:36:55;95453.63;;;7.69;64.57
21182;BME280;10749;46.296;7.524;2023-11-19T01:39:21;95463.63;;;7.66;64.44
21182;BME280;10749;46.296;7.524;2023-11-19T01:41:47;95455.56;;;7.67;64.41
21182;BME280;10749;46.296;7.524;2023-11-19T01:44:12;95462.06;;;7.73;64.16
21182;BME280;10749;46.296;7.524;2023-11-19T01:46:38;95454.00;;;7.74;63.52
21182;BME280;10749;46.296;7.524;2023-11-19T01:49:05;95458.28;;;7.75;63.68
21182;BME280;10749;46.296;7.524;2023-11-19T01:51:31;95458.06;;;7.69;64.15
21182;BME280;10749;46.296;7.524;2023-11-19T01:53:57;95462.63;;;7.67;64.15
21182;BME280;10749;46.296;7.524;2023-11-19T01:56:23;95460.25;;;7.73;64.13
21182;BME280;10749;46.296;7.524;2023-11-19T01:58:50;95459.13;;;7.76;64.23
21182;BME280;10749;46.296;7.524;2023-11-19T02:01:15;95455.13;;;7.72;64.25
21182;BME280;10749;46.296;7.524;2023-11-19T02:03:41;95452.19;;;7.75;64.47
21182;BME280;10749;46.296;7.524;2023-11-19T02:06:06;95451.91;;;7.78;64.45
21182;BME280;10749;46.296;7.524;2023-11-19T02:08:32;95445.81;;;7.77;64.52
21182;BME280;10749;46.296;7.524;2023-11-19T02:10:57;95431.38;;;7.81;64.21
21182;BME280;10749;46.296;7.524;2023-11-19T02:13:25;95435.09;;;7.79;64.48
21182;BME280;10749;46.296;7.524;2023-11-19T02:15:50;95432.91;;;7.74;64.59
21182;BME280;10749;46.296;7.524;2023-11-19T02:18:23;95429.16;;;7.77;64.56
21182;BME280;10749;46.296;7.524;2023-11-19T02:20:53;95424.56;;;7.79;64.71
21182;BME280;10749;46.296;7.524;2023-11-19T02:23:20;95432.34;;;7.80;64.62
21182;BME280;10749;46.296;7.524;2023-11-19T02:25:58;95434.97;;;7.80;64.59
21182;BME280;10749;46.296;7.524;2023-11-19T02:28:25;95424.44;;;7.80;64.58
21182;BME280;10749;46.296;7.524;2023-11-19T02:30:51;95429.69;;;7.80;64.73
21182;BME280;10749;46.296;7.524;2023-11-19T02:33:16;95429.03;;;7.78;64.88
21182;BME280;10749;46.296;7.524;2023-11-19T02:35:41;95426.22;;;7.80;64.53
21182;BME280;10749;46.296;7.524;2023-11-19T02:38:07;95431.06;;;7.84;64.31
21182;BME280;10749;46.296;7.524;2023-11-19T02:40:32;95422.19;;;7.85;63.79
21182;BME280;10749;46.296;7.524;2023-11-19T02:42:58;95412.47;;;7.86;63.71
21182;BME280;10749;46.296;7.524;2023-11-19T02:45:24;95411.38;;;7.79;64.49
21182;BME280;10749;46.296;7.524;2023-11-19T02:47:50;95408.41;;;7.74;64.57
21182;BME280;10749;46.296;7.524;2023-11-19T02:50:18;95407.78;;;7.80;64.27
21182;BME280;10749;46.296;7.524;2023-11-19T02:52:50;95414.41;;;7.84;64.54
21182;BME280;10749;46.296;7.524;2023-11-19T02:55:16;95400.84;;;7.79;64.87
21182;BME280;10749;46.296;7.524;2023-11-19T02:57:42;95403.03;;;7.83;64.71
21182;BME280;10749;46.296;7.524;2023-11-19T03:00:20;95393.34;;;7.84;64.75
21182;BME280;10749;46.296;7.524;2023-11-19T03:02:50;95391.97;;;7.80;64.60
21182;BME280;10749;46.296;7.524;2023-11-19T03:05:26;95391.41;;;7.86;64.18
21182;BME280;10749;46.296;7.524;2023-11-19T03:07:52;95382.78;;;7.84;64.49
21182;BME280;10749;46.296;7.524;2023-11-19T03:10:18;95381.28;;;7.81;64.75
21182;BME280;10749;46.296;7.524;2023-11-19T03:12:44;95378.66;;;7.81;64.83
21182;BME280;10749;46.296;7.524;2023-11-19T03:15:10;95382.78;;;7.84;64.57
21182;BME280;10749;46.296;7.524;2023-11-19T03:17:38;95373.38;;;7.81;64.82
21182;BME280;10749;46.296;7.524;2023-11-19T03:20:09;95375.72;;;7.84;64.71
21182;BME280;10749;46.296;7.524;2023-11-19T03:22:36;95373.91;;;7.85;64.69
21182;BME280;10749;46.296;7.524;2023-11-19T03:25:02;95367.69;;;7.86;64.41
21182;BME280;10749;46.296;7.524;2023-11-19T03:27:27;95370.13;;;7.87;64.43
21182;BME280;10749;46.296;7.524;2023-11-19T03:29:52;95365.03;;;7.86;64.58
21182;BME280;10749;46.296;7.524;2023-11-19T03:32:18;95366.00;;;7.85;64.95
21182;BME280;10749;46.296;7.524;2023-11-19T03:34:43;95365.88;;;7.86;64.87
21182;BME280;10749;46.296;7.524;2023-11-19T03:37:09;95357.19;;;7.76;65.25
21182;BME280;10749;46.296;7.524;2023-11-19T03:39:35;95364.97;;;7.78;64.96
21182;BME280;10749;46.296;7.524;2023-11-19T03:42:00;95364.78;;;7.79;65.30
21182;BME280;10749;46.296;7.524;2023-11-19T03:44:27;95349.81;;;7.80;65.17
21182;BME280;10749;46.296;7.524;2023-11-19T03:46:52;95346.50;;;7.78;65.33
21182;BME280;10749;46.296;7.524;2023-11-19T03:49:17;95351.78;;;7.78;65.25
21182;BME280;10749;46.296;7.524;2023-11-19T03:51:43;95350.25;;;7.75;65.36
21182;BME280;10749;46.296;7.524;2023-11-19T03:54:08;95342.66;;;7.72;65.45
21182;BME280;10749;46.296;7.524;2023-11-19T03:56:33;95352.63;;;7.78;65.13
21182;BME280;10749;46.296;7.524;2023-11-19T03:58:59;95347.88;;;7.82;64.53
21182;BME280;10749;46.296;7.524;2023-11-19T04:01:24;95347.88;;;7.82;64.20
21182;BME280;10749;46.296;7.524;2023-11-19T04:03:49;95348.00;;;7.80;64.23
21182;BME280;10749;46.296;7.524;2023-11-19T04:06:15;95342.59;;;7.82;64.49
21182;BME280;10749;46.296;7.524;2023-11-19T04:08:40;95343.19;;;7.76;64.78
21182;BME280;10749;46.296;7.524;2023-11-19T04:11:06;95348.59;;;7.74;65.17
21182;BME280;10749;46.296;7.524;2023-11-19T04:13:33;95348.47;;;7.76;65.10
21182;BME280;10749;46.296;7.524;2023-11-19T04:15:59;95345.16;;;7.74;65.06
21182;BME280;10749;46.296;7.524;2023-11-19T04:18:24;95342.22;;;7.77;64.89
21182;BME280;10749;46.296;7.524;2023-11-19T04:20:49;95339.97;;;7.82;64.48
21182;BME280;10749;46.296;7.524;2023-11-19T04:23:16;95342.22;;;7.77;64.92
21182;BME280;10749;46.296;7.524;2023-11-19T04:25:41;95342.53;;;7.74;65.50
21182;BME280;10749;46.296;7.524;2023-11-19T04:28:06;95351.22;;;7.74;65.35
21182;BME280;10749;46.296;7.524;2023-11-19T04:30:31;95355.97;;;7.71;65.50
21182;BME280;10749;46.296;7.524;2023-11-19T04:32:57;95357.34;;;7.75;65.31
21182;BME280;10749;46.296;7.524;2023-11-19T04:35:22;95355.00;;;7.72;65.53
21182;BME280;10749;46.296;7.524;2023-11-19T04:37:48;95362.06;;;7.71;65.48
21182;BME280;10749;46.296;7.524;2023-11-19T04:40:13;95363.53;;;7.66;65.76
21182;BME280;10749;46.296;7.524;2023-11-19T04:42:39;95364.31;;;7.66;65.89
21182;BME280;10749;46.296;7.524;2023-11-19T04:45:06;95364.63;;;7.63;65.83
21182;BME280;10749;46.296;7.524;2023-11-19T04:47:32;95362.00;;;7.63;65.73
21182;BME280;10749;46.296;7.524;2023-11-19T04:49:57;95356.06;;;7.61;65.80
21182;BME280;10749;46.296;7.524;2023-11-19T04:52:22;95363.44;;;7.58;65.82
21182;BME280;10749;46.296;7.524;2023-11-19T04:54:48;95359.16;;;7.57;65.74
21182;BME280;10749;46.296;7.524;2023-11-19T04:57:13;95350.53;;;7.55;66.01
21182;BME280;10749;46.296;7.524;2023-11-19T04:59:38;95360.41;;;7.53;65.86
21182;BME280;10749;46.296;7.524;2023-11-19T05:02:04;95354.16;;;7.54;66.02
21182;BME280;10749;46.296;7.524;2023-11-19T05:04:30;95354.47;;;7.51;65.89
21182;BME280;10749;46.296;7.524;2023-11-19T05:06:56;95361.38;;;7.52;66.01
21182;BME280;10749;46.296;7.524;2023-11-19T05:09:21;95362.44;;;7.59;65.16
21182;BME280;10749;46.296;7.524;2023-11-19T05:11:46;95359.66;;;7.60;64.80
21182;BME280;10749;46.296;7.524;2023-11-19T05:14:12;95339.44;;;7.61;65.22
21182;BME280;10749;46.296;7.524;2023-11-19T05:16:39;95351.69;;;7.52;65.63
21182;BME280;10749;46.296;7.524;2023-11-19T05:19:05;95351.06;;;7.58;65.34
21182;BME280;10749;46.296;7.524;2023-11-19T05:21:30;95348.00;;;7.63;65.25
21182;BME280;10749;46.296;7.524;2023-11-19T05:23:56;95345.22;;;7.64;65.47
21182;BME280;10749;46.296;7.524;2023-11-19T05:26:23;95351.16;;;7.66;65.69
21182;BME280;10749;46.296;7.524;2023-11-19T05:28:48;95349.66;;;7.64;65.84
21182;BME280;10749;46.296;7.524;2023-11-19T05:31:15;95329.09;;;7.67;65.78
21182;BME280;10749;46.296;7.524;2023-11-19T05:33:41;95332.19;;;7.63;65.98
21182;BME280;10749;46.296;7.524;2023-11-19T05:36:06;95315.72;;;7.61;65.88
21182;BME280;10749;46.296;7.524;2023-11-19T05:38:34;95315.56;;;7.62;65.83
21182;BME280;10749;46.296;7.524;2023-11-19T05:40:59;95296.31;;;7.62;66.07
21182;BME280;10749;46.296;7.524;2023-11-19T05:43:25;95297.28;;;7.61;66.29
21182;BME280;10749;46.296;7.524;2023-11-19T05:45:50;95300.06;;;7.59;66.22
21182;BME280;10749;46.296;7.524;2023-11-19T05:48:16;95303.22;;;7.63;65.99
21182;BME280;10749;46.296;7.524;2023-11-19T05:50:42;95295.56;;;7.69;65.75
21182;BME280;10749;46.296;7.524;2023-11-19T05:53:07;95301.66;;;7.70;65.62
21182;BME280;10749;46.296;7.524;2023-11-19T05:55:36;95294.41;;;7.72;65.68
21182;BME280;10749;46.296;7.524;2023-11-19T05:58:10;95291.38;;;7.67;66.14
21182;BME280;10749;46.296;7.524;2023-11-19T06:00:37;95289.06;;;7.64;66.13
21182;BME280;10749;46.296;7.524;2023-11-19T06:03:02;95286.13;;;7.67;65.88
21182;BME280;10749;46.296;7.524;2023-11-19T06:05:32;95285.28;;;7.66;66.00
21182;BME280;10749;46.296;7.524;2023-11-19T06:07:57;95288.63;;;7.68;65.98
21182;BME280;10749;46.296;7.524;2023-11-19T06:10:22;95276.94;;;7.71;66.05
21182;BME280;10749;46.296;7.524;2023-11-19T06:12:54;95282.19;;;7.71;65.99
21182;BME280;10749;46.296;7.524;2023-11-19T06:15:21;95266.31;;;7.63;66.33
21182;BME280;10749;46.296;7.524;2023-11-19T06:17:46;95268.13;;;7.62;65.79
21182;BME280;10749;46.296;7.524;2023-11-19T06:20:12;95275.59;;;7.67;65.47
21182;BME280;10749;46.296;7.524;2023-11-19T06:22:39;95273.78;;;7.67;65.86
21182;BME280;10749;46.296;7.524;2023-11-19T06:25:05;95274.31;;;7.71;65.88
21182;BME280;10749;46.296;7.524;2023-11-19T06:27:32;95271.38;;;7.74;65.94
21182;BME280;10749;46.296;7.524;2023-11-19T06:29:57;95279.56;;;7.71;66.23
21182;BME280;10749;46.296;7.524;2023-11-19T06:32:23;95277.25;;;7.68;66.19
21182;BME280;10749;46.296;7.524;2023-11-19T06:34:48;95276.94;;;7.71;66.18
21182;BME280;10749;46.296;7.524;2023-11-19T06:37:13;95268.38;;;7.69;66.25
21182;BME280;10749;46.296;7.524;2023-11-19T06:39:38;95280.09;;;7.74;66.08
21182;BME280;10749;46.296;7.524;2023-11-19T06:42:04;95268.56;;;7.75;65.74
21182;BME280;10749;46.296;7.524;2023-11-19T06:44:29;95278.28;;;7.75;65.80
21182;BME280;10749;46.296;7.524;2023-11-19T06:46:55;95276.34;;;7.77;66.02
21182;BME280;10749;46.296;7.524;2023-11-19T06:49:20;95289.38;;;7.78;65.75
21182;BME280;10749;46.296;7.524;2023-11-19T06:51:45;95287.09;;;7.83;65.35
21182;BME280;10749;46.296;7.524;2023-11-19T06:54:11;95284.31;;;7.85;65.67
21182;BME280;10749;46.296;7.524;2023-11-19T06:56:36;95287.59;;;7.87;65.91
21182;BME280;10749;46.296;7.524;2023-11-19T06:59:02;95285.66;;;7.89;65.84
21182;BME280;10749;46.296;7.524;2023-11-19T07:01:27;95279.25;;;7.92;66.11
21182;BME280;10749;46.296;7.524;2023-11-19T07:03:52;95281.38;;;7.88;66.26
21182;BME280;10749;46.296;7.524;2023-11-19T07:06:18;95279.03;;;7.85;66.08
21182;BME280;10749;46.296;7.524;2023-11-19T07:08:44;95286.50;;;7.89;66.16
21182;BME280;10749;46.296;7.524;2023-11-19T07:11:13;95268.19;;;7.88;65.93
21182;BME280;10749;46.296;7.524;2023-11-19T07:13:40;95270.16;;;7.86;66.35
21182;BME280;10749;46.296;7.524;2023-11-19T07:16:07;95284.00;;;7.88;66.15
21182;BME280;10749;46.296;7.524;2023-11-19T07:18:35;95277.44;;;7.92;66.11
21182;BME280;10749;46.296;7.524;2023-11-19T07:21:00;95279.25;;;7.92;66.15
21182;BME280;10749;46.296;7.524;2023-11-19T07:23:25;95282.88;;;7.91;66.41
21182;BME280;10749;46.296;7.524;2023-11-19T07:25:51;95282.72;;;7.92;66.19
21182;BME280;10749;46.296;7.524;2023-11-19T07:28:18;95275.03;;;7.99;66.73
21182;BME280;10749;46.296;7.524;2023-11-19T07:30:44;95270.28;;;8.02;66.49
21182;BME280;10749;46.296;7.524;2023-11-19T07:33:09;95270.66;;;8.07;66.50
21182;BME280;10749;46.296;7.524;2023-11-19T07:35:34;95276.28;;;8.12;66.45
21182;BME280;10749;46.296;7.524;2023-11-19T07:38:00;95274.00;;;8.17;66.33
21182;BME280;10749;46.296;7.524;2023-11-19T07:40:25;95278.31;;;8.18;66.59
21182;BME280;10749;46.296;7.524;2023-11-19T07:42:51;95280.94;;;8.18;66.57
21182;BME280;10749;46.296;7.524;2023-11-19T07:45:17;95282.59;;;8.19;66.63
21182;BME280;10749;46.296;7.524;2023-11-19T07:47:42;95292.16;;;8.20;66.68
21182;BME280;10749;46.296;7.524;2023-11-19T07:50:10;95282.81;;;8.26;66.15
21182;BME280;10749;46.296;7.524;2023-11-19T07:52:35;95284.19;;;8.30;65.82
21182;BME280;10749;46.296;7.524;2023-11-19T07:55:01;95277.84;;;8.23;66.32
21182;BME280;10749;46.296;7.524;2023-11-19T07:57:27;95270.78;;;8.23;66.33
21182;BME280;10749;46.296;7.524;2023-11-19T07:59:55;95265.56;;;8.31;66.29
21182;BME280;10749;46.296;7.524;2023-11-19T08:02:20;95261.41;;;8.29;66.41
21182;BME280;10749;46.296;7.524;2023-11-19T08:04:46;95267.66;;;8.28;66.67
21182;BME280;10749;46.296;7.524;2023-11-19T08:07:15;95268.47;;;8.28;66.57
21182;BME280;10749;46.296;7.524;2023-11-19T08:09:40;95281.53;;;8.30;66.38
21182;BME280;10749;46.296;7.524;2023-11-19T08:12:05;95283.03;;;8.32;66.73
21182;BME280;10749;46.296;7.524;2023-11-19T08:14:31;95294.78;;;8.38;66.46
21182;BME280;10749;46.296;7.524;2023-11-19T08:16:58;95311.13;;;8.42;65.79
21182;BME280;10749;46.296;7.524;2023-11-19T08:19:23;95305.19;;;8.40;65.69
21182;BME280;10749;46.296;7.524;2023-11-19T08:21:48;95311.59;;;8.37;65.84
21182;BME280;10749;46.296;7.524;2023-11-19T08:24:13;95318.53;;;8.38;65.86
21182;BME280;10749;46.296;7.524;2023-11-19T08:26:39;95317.69;;;8.38;66.12
21182;BME280;10749;46.296;7.524;2023-11-19T08:29:04;95306.53;;;8.44;66.22
21182;BME280;10749;46.296;7.524;2023-11-19T08:31:29;95324.31;;;8.42;66.25
21182;BME280;10749;46.296;7.524;2023-11-19T08:33:55;95307.38;;;8.44;66.05
21182;BME280;10749;46.296;7.524;2023-11-19T08:36:20;95315.28;;;8.44;66.33
21182;BME280;10749;46.296;7.524;2023-11-19T08:38:46;95313.97;;;8.48;66.42
21182;BME280;10749;46.296;7.524;2023-11-19T08:41:11;95323.38;;;8.51;66.40
21182;BME280;10749;46.296;7.524;2023-11-19T08:43:36;95325.41;;;8.57;66.25
21182;BME280;10749;46.296;7.524;2023-11-19T08:46:02;95345.69;;;8.56;66.39
21182;BME280;10749;46.296;7.524;2023-11-19T08:48:28;95341.25;;;8.57;66.33
21182;BME280;10749;46.296;7.524;2023-11-19T08:50:53;95354.13;;;8.60;66.20
21182;BME280;10749;46.296;7.524;2023-11-19T08:53:18;95345.22;;;8.61;66.13
21182;BME280;10749;46.296;7.524;2023-11-19T08:55:44;95339.25;;;8.59;66.14
21182;BME280;10749;46.296;7.524;2023-11-19T08:58:09;95336.63;;;8.59;66.46
21182;BME280;10749;46.296;7.524;2023-11-19T09:00:34;95338.06;;;8.53;66.54
21182;BME280;10749;46.296;7.524;2023-11-19T09:02:59;95346.34;;;8.58;66.28
21182;BME280;10749;46.296;7.524;2023-11-19T09:05:25;95350.50;;;8.61;66.44
21182;BME280;10749;46.296;7.524;2023-11-19T09:07:50;95354.78;;;8.62;66.48
21182;BME280;10749;46.296;7.524;2023-11-19T09:10:15;95371.81;;;8.67;66.31
21182;BME280;10749;46.296;7.524;2023-11-19T09:12:41;95375.66;;;8.73;66.47
21182;BME280;10749;46.296;7.524;2023-11-19T09:15:06;95371.72;;;8.77;66.60
21182;BME280;10749;46.296;7.524;2023-11-19T09:17:32;95361.78;;;8.71;66.66
21182;BME280;10749;46.296;7.524;2023-11-19T09:19:57;95375.66;;;8.73;66.62
21182;BME280;10749;46.296;7.524;2023-11-19T09:22:22;95358.16;;;8.72;66.40
21182;BME280;10749;46.296;7.524;2023-11-19T09:24:48;95362.28;;;8.74;66.48
21182;BME280;10749;46.296;7.524;2023-11-19T09:27:13;95382.78;;;8.80;66.57
21182;BME280;10749;46.296;7.524;2023-11-19T09:29:38;95386.63;;;8.86;66.11
21182;BME280;10749;46.296;7.524;2023-11-19T09:32:04;95379.97;;;8.82;66.05
21182;BME280;10749;46.296;7.524;2023-11-19T09:34:29;95387.22;;;8.80;66.35
21182;BME280;10749;46.296;7.524;2023-11-19T09:36:55;95373.88;;;8.82;66.13
21182;BME280;10749;46.296;7.524;2023-11-19T09:39:20;95379.69;;;8.85;65.84
21182;BME280;10749;46.296;7.524;2023-11-19T09:41:46;95379.16;;;8.82;66.04
21182;BME280;10749;46.296;7.524;2023-11-19T09:44:12;95361.56;;;8.90;66.30
21182;BME280;10749;46.296;7.524;2023-11-19T09:46:38;95360.47;;;9.01;66.24
21182;BME280;10749;46.296;7.524;2023-11-19T09:49:06;95362.31;;;9.08;66.44
21182;BME280;10749;46.296;7.524;2023-11-19T09:51:35;95348.13;;;9.09;66.51
21182;BME280;10749;46.296;7.524;2023-11-19T09:54:01;95352.09;;;9.13;66.40
21182;BME280;10749;46.296;7.524;2023-11-19T09:56:28;95351.41;;;9.11;66.63
21182;BME280;10749;46.296;7.524;2023-11-19T09:58:54;95342.88;;;9.17;66.36
21182;BME280;10749;46.296;7.524;2023-11-19T10:01:20;95343.22;;;9.22;66.39
21182;BME280;10749;46.296;7.524;2023-11-19T10:03:46;95344.34;;;9.20;66.57
21182;BME280;10749;46.296;7.524;2023-11-19T10:06:14;95347.50;;;9.23;66.41
21182;BME280;10749;46.296;7.524;2023-11-19T10:08:41;95353.13;;;9.20;66.20
21182;BME280;10749;46.296;7.524;2023-11-19T10:11:07;95355.41;;;9.15;66.05
21182;BME280;10749;46.296;7.524;2023-11-19T10:13:36;95353.75;;;9.14;65.84
21182;BME280;10749;46.296;7.524;2023-11-19T10:16:09;95353.75;;;9.14;65.82
21182;BME280;10749;46.296;7.524;2023-11-19T10:18:37;95355.09;;;9.18;65.82
21182;BME280;10749;46.296;7.524;2023-11-19T10:21:04;95354.09;;;9.19;66.27
21182;BME280;10749;46.296;7.524;2023-11-19T10:23:31;95349.50;;;9.21;66.36
21182;BME280;10749;46.296;7.524;2023-11-19T10:26:03;95344.72;;;9.25;66.12
21182;BME280;10749;46.296;7.524;2023-11-19T10:28:39;95334.34;;;9.32;66.42
21182;BME280;10749;46.296;7.524;2023-11-19T10:31:05;95333.38;;;9.41;66.37
21182;BME280;10749;46.296;7.524;2023-11-19T10:33:30;95330.59;;;9.42;66.37
21182;BME280;10749;46.296;7.524;2023-11-19T10:35:57;95325.16;;;9.52;66.64
21182;BME280;10749;46.296;7.524;2023-11-19T10:38:23;95324.19;;;9.61;66.68
21182;BME280;10749;46.296;7.524;2023-11-19T10:40:50;95327.38;;;9.72;66.60
21182;BME280;10749;46.296;7.524;2023-11-19T10:43:16;95331.34;;;9.85;66.50
21182;BME280;10749;46.296;7.524;2023-11-19T10:45:42;95323.91;;;9.96;66.86
21182;BME280;10749;46.296;7.524;2023-11-19T10:48:07;95322.94;;;10.05;66.67
21182;BME280;10749;46.296;7.524;2023-11-19T10:50:34;95326.94;;;10.17;66.61
21182;BME280;10749;46.296;7.524;2023-11-19T10:53:00;95328.22;;;10.13;66.63
21182;BME280;10749;46.296;7.524;2023-11-19T10:55:27;95320.59;;;10.10;66.02
21182;BME280;10749;46.296;7.524;2023-11-19T10:58:01;95304.25;;;9.99;66.25
21182;BME280;10749;46.296;7.524;2023-11-19T11:00:30;95303.94;;;9.94;66.33
21182;BME280;10749;46.296;7.524;2023-11-19T11:03:02;95303.09;;;9.93;66.55
21182;BME280;10749;46.296;7.524;2023-11-19T11:05:32;95311.66;;;9.87;66.62
21182;BME280;10749;46.296;7.524;2023-11-19T11:08:00;95305.06;;;9.83;66.39
21182;BME280;10749;46.296;7.524;2023-11-19T11:10:26;95295.97;;;9.86;66.25
21182;BME280;10749;46.296;7.524;2023-11-19T11:12:52;95297.47;;;9.80;66.36
21182;BME280;10749;46.296;7.524;2023-11-19T11:15:27;95295.47;;;9.82;66.08
21182;BME280;10749;46.296;7.524;2023-11-19T11:17:59;95282.94;;;9.84;66.08
21182;BME280;10749;46.296;7.524;2023-11-19T11:20:27;95281.13;;;9.85;66.35
21182;BME280;10749;46.296;7.524;2023-11-19T11:23:32;95294.50;;;9.91;66.67
21182;BME280;10749;46.296;7.524;2023-11-19T11:26:30;95286.56;;;9.91;66.76
21182;BME280;10749;46.296;7.524;2023-11-19T11:32:12;95327.53;;;9.87;66.66
21182;BME280;10749;46.296;7.524;2023-11-19T11:35:08;95331.16;;;9.78;66.68
21182;BME280;10749;46.296;7.524;2023-11-19T11:37:45;95325.56;;;9.73;66.83
21182;BME280;10749;46.296;7.524;2023-11-19T11:40:17;95323.88;;;9.72;66.75
21182;BME280;10749;46.296;7.524;2023-11-19T11:42:46;95320.75;;;9.68;66.65
21182;BME280;10749;46.296;7.524;2023-11-19T11:45:12;95312.97;;;9.67;66.84
21182;BME280;10749;46.296;7.524;2023-11-19T11:50:11;95305.06;;;9.75;66.66
21182;BME280;10749;46.296;7.524;2023-11-19T11:56:11;95314.47;;;9.86;66.90
21182;BME280;10749;46.296;7.524;2023-11-19T11:58:12;95325.38;;;9.91;66.96
21182;BME280;10749;46.296;7.524;2023-11-19T12:00:39;95328.22;;;9.97;66.87
21182;BME280;10749;46.296;7.524;2023-11-19T12:03:05;95330.53;;;10.00;66.99
21182;BME280;10749;46.296;7.524;2023-11-19T12:05:32;95333.81;;;10.02;66.94
21182;BME280;10749;46.296;7.524;2023-11-19T12:08:03;95339.09;;;10.02;66.56
21182;BME280;10749;46.296;7.524;2023-11-19T12:10:30;95328.88;;;9.99;66.25
21182;BME280;10749;46.296;7.524;2023-11-19T12:12:59;95308.69;;;9.98;66.52
21182;BME280;10749;46.296;7.524;2023-11-19T12:15:25;95313.84;;;10.00;66.70
21182;BME280;10749;46.296;7.524;2023-11-19T12:17:51;95310.19;;;10.09;66.86
21182;BME280;10749;46.296;7.524;2023-11-19T12:20:18;95299.13;;;10.13;66.86
21182;BME280;10749;46.296;7.524;2023-11-19T12:22:45;95303.75;;;10.28;66.89
21182;BME280;10749;46.296;7.524;2023-11-19T12:25:12;95304.28;;;10.39;67.00
21182;BME280;10749;46.296;7.524;2023-11-19T12:27:42;95309.03;;;10.44;66.98
21182;BME280;10749;46.296;7.524;2023-11-19T12:30:08;95299.97;;;10.46;66.61
21182;BME280;10749;46.296;7.524;2023-11-19T12:32:41;95295.50;;;10.47;66.37
21182;BME280;10749;46.296;7.524;2023-11-19T12:35:08;95296.50;;;10.38;66.68
21182;BME280;10749;46.296;7.524;2023-11-19T12:37:46;95301.94;;;10.36;66.12
21182;BME280;10749;46.296;7.524;2023-11-19T12:40:22;95298.47;;;10.28;66.28
21182;BME280;10749;46.296;7.524;2023-11-19T12:42:54;95296.78;;;10.10;66.64
21182;BME280;10749;46.296;7.524;2023-11-19T12:45:20;95289.69;;;10.11;66.51
21182;BME280;10749;46.296;7.524;2023-11-19T12:47:47;95306.25;;;10.13;66.79
21182;BME280;10749;46.296;7.524;2023-11-19T12:50:14;95304.44;;;10.22;66.89
21182;BME280;10749;46.296;7.524;2023-11-19T12:52:39;95313.69;;;10.26;66.82
21182;BME280;10749;46.296;7.524;2023-11-19T12:55:24;95317.47;;;10.31;66.95
21182;BME280;10749;46.296;7.524;2023-11-19T12:57:51;95311.88;;;10.34;66.85
21182;BME280;10749;46.296;7.524;2023-11-19T13:00:21;95310.38;;;10.40;66.93
21182;BME280;10749;46.296;7.524;2023-11-19T13:02:51;95311.19;;;10.40;66.57
21182;BME280;10749;46.296;7.524;2023-11-19T13:05:30;95307.09;;;10.30;66.76
21182;BME280;10749;46.296;7.524;2023-11-19T13:10:27;95303.28;;;10.32;67.20
21182;BME280;10749;46.296;7.524;2023-11-19T13:13:06;95290.03;;;10.40;67.25
21182;BME280;10749;46.296;7.524;2023-11-19T13:15:33;95278.28;;;10.51;66.99
21182;BME280;10749;46.296;7.524;2023-11-19T13:17:59;95285.22;;;10.60;67.07
21182;BME280;10749;46.296;7.524;2023-11-19T13:20:25;95290.16;;;10.63;67.08